createdAt,value
2019-01-08T00:04:44.794Z,2.00
2019-01-08T00:09:48.927Z,2.00
2019-01-08T00:14:53.151Z,2.10
2019-01-08T00:19:57.506Z,2.10
2019-01-08T00:25:01.775Z,2.50
2019-01-08T00:30:06.903Z,2.00
2019-01-08T00:35:11.101Z,1.70
2019-01-08T00:40:15.289Z,1.93
2019-01-08T00:45:19.484Z,1.50
2019-01-08T00:50:23.585Z,1.67
2019-01-08T00:55:27.800Z,1.03
2019-01-08T01:00:32.028Z,1.20
2019-01-08T01:05:36.177Z,0.90
2019-01-08T01:10:40.336Z,1.20
2019-01-08T01:15:45.042Z,1.10
2019-01-08T01:20:49.107Z,0.93
2019-01-08T01:25:53.253Z,1.00
2019-01-08T01:30:57.397Z,0.77
2019-01-08T01:36:01.539Z,1.00
2019-01-08T01:41:05.667Z,1.20
2019-01-08T01:46:09.840Z,0.97
2019-01-08T01:51:13.979Z,1.03
2019-01-08T01:56:18.143Z,0.87
2019-01-08T02:01:22.192Z,0.83
2019-01-08T02:06:26.317Z,1.07
2019-01-08T02:11:30.544Z,1.10
2019-01-08T02:16:34.515Z,1.10
2019-01-08T02:21:38.731Z,1.00
2019-01-08T02:26:42.696Z,1.00
2019-01-08T02:31:46.698Z,1.00
2019-01-08T02:36:50.809Z,0.73
2019-01-08T02:41:54.985Z,1.00
2019-01-08T02:46:59.040Z,0.70
2019-01-08T02:52:03.069Z,1.10
2019-01-08T02:57:07.144Z,0.80
2019-01-08T03:02:11.216Z,1.00
2019-01-08T03:07:15.289Z,0.90
2019-01-08T03:12:19.364Z,0.83
2019-01-08T03:17:23.667Z,0.60
2019-01-08T03:22:27.810Z,0.80
2019-01-08T03:27:32.043Z,0.63
2019-01-08T03:32:36.107Z,0.50
2019-01-08T03:37:40.261Z,0.70
2019-01-08T03:42:44.394Z,0.70
2019-01-08T03:47:48.527Z,0.70
2019-01-08T03:52:52.595Z,0.57
2019-01-08T03:57:56.890Z,0.63
2019-01-08T04:03:01.160Z,0.67
2019-01-08T04:08:05.380Z,0.80
2019-01-08T04:13:09.514Z,0.70
2019-01-08T04:18:14.034Z,0.80
2019-01-08T04:23:18.180Z,0.80
2019-01-08T04:28:22.360Z,0.90
2019-01-08T04:33:26.582Z,0.60
2019-01-08T04:38:30.610Z,0.83
2019-01-08T04:43:34.705Z,0.60
2019-01-08T04:48:38.758Z,0.90
2019-01-08T04:53:42.862Z,0.97
2019-01-08T04:58:46.911Z,0.97
2019-01-08T05:03:50.905Z,0.97
2019-01-08T05:08:54.826Z,0.70
2019-01-08T05:13:58.694Z,1.03
2019-01-08T05:19:02.780Z,0.90
2019-01-08T05:24:06.831Z,0.70
2019-01-08T05:29:10.769Z,0.77
2019-01-08T05:34:14.833Z,0.50
2019-01-08T05:39:18.729Z,0.80
2019-01-08T05:44:22.732Z,1.00
2019-01-08T05:49:26.777Z,0.80
2019-01-08T05:54:30.738Z,0.70
2019-01-08T05:59:34.688Z,0.60
2019-01-08T06:04:38.898Z,0.60
2019-01-08T06:09:43.126Z,0.60
2019-01-08T06:14:47.294Z,0.93
2019-01-08T06:19:51.424Z,0.70
2019-01-08T06:24:55.496Z,0.60
2019-01-08T06:29:59.598Z,0.53
2019-01-08T06:35:03.858Z,0.87
2019-01-08T06:40:07.989Z,0.90
2019-01-08T06:45:12.083Z,0.78
2019-01-08T06:50:16.261Z,0.70
2019-01-08T06:55:20.368Z,0.70
2019-01-08T07:00:24.417Z,0.77
2019-01-08T07:05:28.577Z,0.80
2019-01-08T07:10:32.388Z,0.60
2019-01-08T07:15:36.291Z,0.87
2019-01-08T07:20:40.287Z,0.87
2019-01-08T07:25:44.277Z,0.80
2019-01-08T07:30:48.226Z,1.20
2019-01-08T07:35:52.252Z,1.30
2019-01-08T07:40:56.384Z,0.83
2019-01-08T07:46:00.493Z,1.20
2019-01-08T07:51:04.535Z,1.03
2019-01-08T07:56:08.424Z,1.10
2019-01-08T08:01:12.149Z,0.90
2019-01-08T08:06:15.944Z,1.10
2019-01-08T08:11:19.664Z,1.17
2019-01-08T08:16:23.403Z,1.63
2019-01-08T08:21:27.171Z,1.57
2019-01-08T08:26:30.998Z,1.10
2019-01-08T08:31:34.778Z,1.20
2019-01-08T08:36:38.520Z,0.70
2019-01-08T08:41:42.323Z,0.90
2019-01-08T08:46:46.098Z,1.13
2019-01-08T08:51:49.896Z,1.03
2019-01-08T08:56:53.785Z,0.90
2019-01-08T09:01:57.684Z,0.83
2019-01-08T09:07:01.451Z,1.30
2019-01-08T09:12:05.338Z,1.27
2019-01-08T09:17:09.071Z,1.10
2019-01-08T09:22:12.804Z,1.10
2019-01-08T09:27:16.524Z,0.97
2019-01-08T09:32:20.269Z,1.20
2019-01-08T09:37:24.050Z,1.70
2019-01-08T09:42:27.812Z,1.20
2019-01-08T09:47:31.664Z,1.43
2019-01-08T09:52:35.446Z,1.03
2019-01-08T09:57:39.426Z,1.80
2019-01-08T10:02:43.229Z,1.03
2019-01-08T10:07:47.068Z,1.13
2019-01-08T10:12:51.037Z,1.17
2019-01-08T10:17:54.892Z,1.10
2019-01-08T10:22:58.679Z,1.00
2019-01-08T10:28:02.638Z,0.90
2019-01-08T10:33:06.543Z,0.90
2019-01-08T10:38:10.544Z,0.90
2019-01-08T10:43:14.301Z,1.33
2019-01-08T10:48:18.188Z,1.15
2019-01-08T10:53:22.026Z,1.27
2019-01-08T10:58:25.762Z,1.27
2019-01-08T11:03:29.560Z,1.10
2019-01-08T11:08:33.533Z,0.80
2019-01-08T11:13:37.512Z,1.20
2019-01-08T11:18:41.441Z,1.33
2019-01-08T11:23:45.438Z,1.30
2019-01-08T11:28:49.288Z,1.10
2019-01-08T11:33:53.233Z,1.10
2019-01-08T11:38:57.102Z,1.30
2019-01-08T11:44:01.043Z,1.43
2019-01-08T11:49:05.023Z,1.00
2019-01-08T11:54:08.909Z,1.27
2019-01-08T11:59:12.807Z,1.40
2019-01-08T12:04:16.707Z,1.30
2019-01-08T12:09:20.732Z,1.27
2019-01-08T12:14:24.700Z,1.17
2019-01-08T12:19:28.592Z,1.00
2019-01-08T12:24:32.664Z,1.60
2019-01-08T12:29:36.605Z,0.80
2019-01-08T12:34:40.528Z,0.80
2019-01-08T12:39:44.454Z,0.80
2019-01-08T12:44:48.432Z,1.03
2019-01-08T12:49:54.363Z,0.93
2019-01-08T12:54:58.004Z,0.70
2019-01-08T13:00:02.031Z,0.60
2019-01-08T13:05:06.296Z,0.70
2019-01-08T13:10:10.304Z,0.77
2019-01-08T13:15:14.253Z,0.65
2019-01-08T13:20:18.126Z,0.67
2019-01-08T13:25:22.079Z,0.80
2019-01-08T13:30:25.945Z,0.50
2019-01-08T13:35:29.695Z,0.50
2019-01-08T13:40:33.595Z,0.40
2019-01-08T13:45:37.469Z,0.50
2019-01-08T13:50:41.475Z,0.73
2019-01-08T13:55:45.246Z,0.50
2019-01-08T14:00:49.013Z,0.50
2019-01-08T14:05:52.831Z,0.50
2019-01-08T14:10:56.870Z,0.70
2019-01-08T14:16:00.725Z,0.50
2019-01-08T14:21:04.532Z,0.73
2019-01-08T14:26:08.490Z,0.60
2019-01-08T14:31:12.366Z,0.57
2019-01-08T14:36:16.159Z,0.50
2019-01-08T14:41:19.909Z,0.60
2019-01-08T14:46:24.565Z,0.50
2019-01-08T14:51:28.349Z,0.47
2019-01-08T14:56:32.184Z,0.27
2019-01-08T15:01:36.223Z,0.60
2019-01-08T15:06:40.092Z,1.00
2019-01-08T15:11:44.124Z,0.80
2019-01-08T15:16:48.193Z,0.90
2019-01-08T15:21:51.995Z,1.07
2019-01-08T15:26:55.784Z,0.90
2019-01-08T15:31:59.675Z,1.50
2019-01-08T15:37:03.574Z,1.43
2019-01-08T15:42:07.567Z,1.00
2019-01-08T15:47:11.602Z,1.27
2019-01-08T15:52:15.589Z,1.23
2019-01-08T15:57:19.644Z,0.70
2019-01-08T16:02:23.389Z,0.70
2019-01-08T16:07:27.179Z,0.73
2019-01-08T16:12:31.025Z,1.07
2019-01-08T16:17:34.743Z,0.90
2019-01-08T16:22:38.469Z,0.77
2019-01-08T16:27:42.287Z,1.10
2019-01-08T16:32:56.723Z,0.90
2019-01-08T16:38:03.543Z,1.40
2019-01-08T16:43:07.721Z,1.63
2019-01-08T16:48:11.628Z,1.10
2019-01-08T16:53:15.462Z,1.27
2019-01-08T16:58:19.456Z,1.50
2019-01-08T17:03:24.869Z,1.30
2019-01-08T17:08:28.899Z,1.03
2019-01-08T17:13:32.884Z,1.60
2019-01-08T17:18:36.764Z,1.43
2019-01-08T17:23:40.689Z,1.70
2019-01-08T17:28:44.497Z,1.57
2019-01-08T17:33:48.430Z,1.33
2019-01-08T17:38:52.369Z,2.53
2019-01-08T17:43:56.348Z,1.67
2019-01-08T17:49:00.197Z,1.17
2019-01-08T17:54:04.261Z,1.50
2019-01-08T17:59:14.286Z,1.77
2019-01-08T18:04:18.913Z,1.70
2019-01-08T18:09:22.846Z,1.47
2019-01-08T18:14:26.652Z,1.53
2019-01-08T18:19:30.702Z,1.50
2019-01-08T18:24:34.788Z,1.00
2019-01-08T18:29:38.930Z,1.07
2019-01-08T18:34:42.919Z,1.30
2019-01-08T18:39:47.013Z,0.83
2019-01-08T18:44:51.063Z,1.57
2019-01-08T18:49:54.967Z,1.30
2019-01-08T18:54:58.926Z,0.87
2019-01-08T19:00:02.951Z,0.80
2019-01-08T19:05:07.019Z,0.80
2019-01-08T19:10:13.526Z,0.70
2019-01-08T19:15:17.507Z,1.00
2019-01-08T19:20:21.614Z,0.82
2019-01-08T19:25:25.686Z,0.70
2019-01-08T19:30:29.637Z,0.63
2019-01-08T19:35:33.641Z,0.70
2019-01-08T19:40:37.498Z,0.80
2019-01-08T19:45:41.530Z,0.60
2019-01-08T19:50:45.466Z,0.57
2019-01-08T19:55:49.486Z,0.60
2019-01-08T20:00:53.445Z,0.80
2019-01-08T20:05:57.616Z,0.87
2019-01-08T20:11:01.638Z,0.90
2019-01-08T20:16:05.510Z,0.70
2019-01-08T20:21:09.525Z,0.60
2019-01-08T20:26:13.600Z,0.87
2019-01-08T20:31:17.541Z,0.90
2019-01-08T20:36:21.460Z,0.60
2019-01-08T20:41:25.445Z,0.80
2019-01-08T20:46:29.443Z,0.87
2019-01-08T20:51:33.349Z,1.20
2019-01-08T20:56:37.183Z,1.30
2019-01-08T21:01:41.073Z,1.40
2019-01-08T21:06:44.868Z,1.00
2019-01-08T21:11:48.841Z,1.20
2019-01-08T21:16:52.808Z,1.00
2019-01-08T21:21:56.966Z,0.90
2019-01-08T21:27:01.171Z,1.10
2019-01-08T21:32:05.211Z,0.90
2019-01-08T21:37:09.425Z,0.77
2019-01-08T21:42:13.366Z,0.77
2019-01-08T21:47:17.479Z,0.70
2019-01-08T21:52:21.578Z,0.93
2019-01-08T21:57:35.474Z,0.50
2019-01-08T22:02:39.836Z,1.10
2019-01-08T22:07:43.957Z,0.63
2019-01-08T22:12:48.058Z,0.60
2019-01-08T22:17:52.016Z,0.80
2019-01-08T22:22:56.185Z,0.80
2019-01-08T22:28:00.178Z,0.80
2019-01-08T22:33:04.311Z,0.80
2019-01-08T22:38:08.439Z,0.60
2019-01-08T22:43:12.595Z,0.40
2019-01-08T22:48:16.710Z,0.60
2019-01-08T22:53:20.839Z,0.57
2019-01-08T22:58:25.405Z,0.57
2019-01-08T23:03:29.646Z,0.60
2019-01-08T23:08:33.925Z,0.53
2019-01-08T23:13:38.207Z,0.50
2019-01-08T23:18:42.339Z,0.50
2019-01-08T23:23:46.649Z,0.50
2019-01-08T23:28:50.770Z,0.57
2019-01-08T23:33:54.883Z,0.53
2019-01-08T23:38:58.898Z,0.70
2019-01-08T23:44:02.898Z,0.50
2019-01-08T23:49:07.035Z,0.50
2019-01-08T23:54:11.559Z,0.30
2019-01-08T23:59:15.680Z,0.47
